createdAt,value
2019-04-25T00:00:44.231Z,1000.54
2019-04-25T00:01:44.663Z,1000.55
2019-04-25T00:02:44.736Z,1000.56
2019-04-25T00:03:44.672Z,1000.59
2019-04-25T00:04:44.632Z,1000.56
2019-04-25T00:05:43.765Z,1000.51
2019-04-25T00:06:44.012Z,1000.53
2019-04-25T00:07:43.940Z,1000.47
2019-04-25T00:08:44.133Z,1000.46
2019-04-25T00:09:44.063Z,1000.43
2019-04-25T00:10:43.903Z,1000.42
2019-04-25T00:11:46.624Z,1000.45
2019-04-25T00:12:44.543Z,1000.40
2019-04-25T00:13:44.075Z,1000.37
2019-04-25T00:14:43.792Z,1000.34
2019-04-25T00:15:44.933Z,1000.34
2019-04-25T00:16:44.158Z,1000.33
2019-04-25T00:17:44.329Z,1000.31
2019-04-25T00:18:44.229Z,1000.28
2019-04-25T00:19:44.158Z,1000.19
2019-04-25T00:20:43.683Z,1000.18
2019-04-25T00:21:43.466Z,1000.17
2019-04-25T00:22:43.720Z,1000.17
2019-04-25T00:23:43.772Z,1000.17
2019-04-25T00:24:44.123Z,1000.21
2019-04-25T00:25:46.760Z,1000.26
2019-04-25T00:26:44.996Z,1000.32
2019-04-25T00:27:44.825Z,1000.41
2019-04-25T00:28:44.406Z,1000.48
2019-04-25T00:29:44.508Z,1000.50
2019-04-25T00:30:44.468Z,1000.51
2019-04-25T00:31:43.817Z,1000.63
2019-04-25T00:32:44.191Z,1000.69
2019-04-25T00:33:44.186Z,1000.75
2019-04-25T00:34:44.487Z,1000.75
2019-04-25T00:35:44.568Z,1000.76
2019-04-25T00:36:45.357Z,1000.70
2019-04-25T00:37:45.105Z,1000.64
2019-04-25T00:38:46.272Z,1000.67
2019-04-25T00:39:44.883Z,1000.63
2019-04-25T00:40:43.950Z,1000.66
2019-04-25T00:41:45.145Z,1000.66
2019-04-25T00:42:44.687Z,1000.72
2019-04-25T00:43:44.040Z,1000.74
2019-04-25T00:44:44.796Z,1000.77
2019-04-25T00:45:44.323Z,1000.81
2019-04-25T00:46:46.393Z,1000.80
2019-04-25T00:47:43.867Z,1000.81
2019-04-25T00:48:43.436Z,1000.79
2019-04-25T00:49:44.196Z,1000.77
2019-04-25T00:50:43.646Z,1000.78
2019-04-25T00:51:43.836Z,1000.78
2019-04-25T00:52:43.925Z,1000.81
2019-04-25T00:53:43.732Z,1000.78
2019-04-25T00:54:43.172Z,1000.83
2019-04-25T00:55:43.145Z,1000.81
2019-04-25T00:56:45.789Z,1000.82
2019-04-25T00:57:43.612Z,1000.89
2019-04-25T00:58:43.983Z,1000.88
2019-04-25T00:59:43.894Z,1000.85
2019-04-25T01:00:43.439Z,1000.81
2019-04-25T01:01:44.212Z,1000.75
2019-04-25T01:02:44.077Z,1000.73
2019-04-25T01:03:44.112Z,1000.71
2019-04-25T01:04:43.740Z,1000.69
2019-04-25T01:05:44.406Z,1000.72
2019-04-25T01:06:43.931Z,1000.67
2019-04-25T01:07:44.245Z,1000.68
2019-04-25T01:08:43.359Z,1000.66
2019-04-25T01:09:42.537Z,1000.60
2019-04-25T01:10:42.524Z,1000.59
2019-04-25T01:11:42.542Z,1000.60
2019-04-25T01:12:42.482Z,1000.62
2019-04-25T01:13:42.463Z,1000.57
2019-04-25T01:14:42.442Z,1000.54
2019-04-25T01:15:42.589Z,1000.48
2019-04-25T01:16:42.408Z,1000.45
2019-04-25T01:17:42.384Z,1000.41
2019-04-25T01:18:43.651Z,1000.39
2019-04-25T01:19:44.037Z,1000.30
2019-04-25T01:20:43.440Z,1000.31
2019-04-25T01:21:43.904Z,1000.30
2019-04-25T01:22:43.987Z,1000.32
2019-04-25T01:23:43.469Z,1000.34
2019-04-25T01:24:43.858Z,1000.30
2019-04-25T01:25:44.295Z,1000.32
2019-04-25T01:26:43.749Z,1000.29
2019-04-25T01:27:43.308Z,1000.25
2019-04-25T01:28:43.845Z,1000.19
2019-04-25T01:29:42.151Z,1000.09
2019-04-25T01:30:43.803Z,1000.09
2019-04-25T01:31:43.450Z,1000.02
2019-04-25T01:32:44.640Z,1000.04
2019-04-25T01:33:43.345Z,1000.03
2019-04-25T01:34:42.055Z,1000.04
2019-04-25T01:35:43.091Z,1000.07
2019-04-25T01:36:42.023Z,1000.06
2019-04-25T01:37:43.719Z,1000.08
2019-04-25T01:38:43.306Z,1000.11
2019-04-25T01:39:41.959Z,1000.15
2019-04-25T01:40:43.481Z,1000.18
2019-04-25T01:41:41.920Z,1000.22
2019-04-25T01:42:43.725Z,1000.23
2019-04-25T01:43:43.639Z,1000.22
2019-04-25T01:44:41.861Z,1000.22
2019-04-25T01:45:41.843Z,1000.26
2019-04-25T01:46:41.826Z,1000.27
2019-04-25T01:47:43.426Z,1000.28
2019-04-25T01:48:43.267Z,1000.34
2019-04-25T01:49:41.764Z,1000.34
2019-04-25T01:50:43.639Z,1000.35
2019-04-25T01:51:41.725Z,1000.35
2019-04-25T01:52:43.353Z,1000.44
2019-04-25T01:53:41.687Z,1000.43
2019-04-25T01:54:41.665Z,1000.41
2019-04-25T01:55:53.005Z,1000.39
2019-04-25T01:56:41.628Z,1000.41
2019-04-25T01:57:41.607Z,1000.39
2019-04-25T01:58:41.588Z,1000.45
2019-04-25T01:59:41.580Z,1000.48
2019-04-25T02:00:43.154Z,1000.56
2019-04-25T02:01:41.528Z,1000.55
2019-04-25T02:02:41.513Z,1000.60
2019-04-25T02:03:41.498Z,1000.59
2019-04-25T02:04:41.476Z,1000.64
2019-04-25T02:05:41.456Z,1000.66
2019-04-25T02:06:41.432Z,1000.68
2019-04-25T02:07:41.411Z,1000.74
2019-04-25T02:08:41.395Z,1000.77
2019-04-25T02:09:41.373Z,1000.83
2019-04-25T02:10:41.357Z,1000.83
2019-04-25T02:11:41.334Z,1000.86
2019-04-25T02:12:41.314Z,1000.84
2019-04-25T02:13:41.294Z,1000.80
2019-04-25T02:14:41.276Z,1000.83
2019-04-25T02:15:41.258Z,1000.80
2019-04-25T02:16:41.236Z,1000.83
2019-04-25T02:17:41.225Z,1000.86
2019-04-25T02:18:41.197Z,1000.86
2019-04-25T02:19:41.177Z,1000.87
2019-04-25T02:20:41.158Z,1000.95
2019-04-25T02:21:41.137Z,1000.95
2019-04-25T02:22:41.128Z,1001.00
2019-04-25T02:23:41.098Z,1001.00
2019-04-25T02:24:41.080Z,1001.06
2019-04-25T02:25:41.059Z,1001.13
2019-04-25T02:26:41.040Z,1001.14
2019-04-25T02:27:41.019Z,1001.24
2019-04-25T02:28:40.998Z,1001.22
2019-04-25T02:29:40.979Z,1001.27
2019-04-25T02:30:40.964Z,1001.29
2019-04-25T02:31:40.940Z,1001.31
2019-04-25T02:32:40.920Z,1001.26
2019-04-25T02:33:40.902Z,1001.25
2019-04-25T02:34:40.884Z,1001.22
2019-04-25T02:35:43.214Z,1001.18
2019-04-25T02:36:40.841Z,1001.19
2019-04-25T02:37:40.822Z,1001.22
2019-04-25T02:38:40.804Z,1001.25
2019-04-25T02:39:40.792Z,1001.25
2019-04-25T02:40:40.767Z,1001.24
2019-04-25T02:41:40.745Z,1001.24
2019-04-25T02:42:40.724Z,1001.17
2019-04-25T02:43:40.710Z,1001.14
2019-04-25T02:44:40.699Z,1001.18
2019-04-25T02:45:40.664Z,1001.19
2019-04-25T02:46:40.645Z,1001.17
2019-04-25T02:47:40.628Z,1001.20
2019-04-25T02:48:40.606Z,1001.14
2019-04-25T02:49:40.599Z,1001.13
2019-04-25T02:50:40.571Z,1001.11
2019-04-25T02:51:40.549Z,1001.06
2019-04-25T02:52:40.528Z,1001.05
2019-04-25T02:53:40.505Z,1001.02
2019-04-25T02:54:40.500Z,1000.96
2019-04-25T02:55:40.468Z,1000.96
2019-04-25T02:56:40.449Z,1000.96
2019-04-25T02:57:40.426Z,1000.98
2019-04-25T02:58:40.406Z,1000.92
2019-04-25T02:59:40.390Z,1000.95
2019-04-25T03:00:54.965Z,1000.93
2019-04-25T03:01:40.349Z,1000.96
2019-04-25T03:02:40.343Z,1000.94
2019-04-25T03:03:40.309Z,1000.94
2019-04-25T03:04:40.290Z,1000.93
2019-04-25T03:05:40.309Z,1000.93
2019-04-25T03:06:40.259Z,1000.96
2019-04-25T03:07:40.229Z,1001.00
2019-04-25T03:08:40.213Z,1001.01
2019-04-25T03:09:40.191Z,1001.00
2019-04-25T03:10:40.171Z,1000.99
2019-04-25T03:11:40.148Z,1000.98
2019-04-25T03:12:40.148Z,1000.93
2019-04-25T03:13:40.110Z,1000.88
2019-04-25T03:14:40.091Z,1000.90
2019-04-25T03:15:40.078Z,1000.91
2019-04-25T03:16:40.056Z,1000.94
2019-04-25T03:17:40.031Z,1000.96
2019-04-25T03:18:40.011Z,1000.96
2019-04-25T03:19:39.990Z,1000.96
2019-04-25T03:20:39.972Z,1000.97
2019-04-25T03:21:39.955Z,1000.91
2019-04-25T03:22:39.931Z,1000.95
2019-04-25T03:23:42.602Z,1000.99
2019-04-25T03:24:39.894Z,1000.96
2019-04-25T03:25:39.869Z,1000.99
2019-04-25T03:26:40.745Z,1000.98
2019-04-25T03:27:39.832Z,1000.97
2019-04-25T03:28:39.810Z,1000.95
2019-04-25T03:29:39.791Z,1000.96
2019-04-25T03:30:39.773Z,1000.92
2019-04-25T03:31:39.754Z,1000.95
2019-04-25T03:32:39.739Z,1000.94
2019-04-25T03:33:39.713Z,1000.93
2019-04-25T03:34:39.691Z,1000.96
2019-04-25T03:35:39.679Z,1000.95
2019-04-25T03:36:39.653Z,1000.98
2019-04-25T03:37:39.632Z,1000.97
2019-04-25T03:38:39.613Z,1001.02
2019-04-25T03:39:39.593Z,1001.02
2019-04-25T03:40:39.573Z,1001.04
2019-04-25T03:41:39.555Z,1001.04
2019-04-25T03:42:39.534Z,1001.05
2019-04-25T03:43:39.514Z,1001.04
2019-04-25T03:44:39.498Z,1001.06
2019-04-25T03:45:39.474Z,1001.07
2019-04-25T03:46:39.455Z,1001.10
2019-04-25T03:47:39.435Z,1001.09
2019-04-25T03:48:39.421Z,1001.12
2019-04-25T03:49:39.394Z,1001.12
2019-04-25T03:50:39.376Z,1001.16
2019-04-25T03:51:39.357Z,1001.15
2019-04-25T03:52:39.338Z,1001.14
2019-04-25T03:53:39.314Z,1001.14
2019-04-25T03:54:39.295Z,1001.14
2019-04-25T03:55:39.292Z,1001.16
2019-04-25T03:56:49.934Z,1001.14
2019-04-25T03:57:39.235Z,1001.17
2019-04-25T03:58:39.231Z,1001.18
2019-04-25T03:59:39.205Z,1001.18
2019-04-25T04:00:39.177Z,1001.21
2019-04-25T04:01:39.155Z,1001.17
2019-04-25T04:02:39.145Z,1001.16
2019-04-25T04:03:39.115Z,1001.13
2019-04-25T04:04:39.094Z,1001.16
2019-04-25T04:05:39.083Z,1001.16
2019-04-25T04:06:39.066Z,1001.19
2019-04-25T04:07:39.046Z,1001.21
2019-04-25T04:08:39.016Z,1001.22
2019-04-25T04:09:38.994Z,1001.20
2019-04-25T04:10:38.975Z,1001.19
2019-04-25T04:11:38.959Z,1001.21
2019-04-25T04:12:38.940Z,1001.18
2019-04-25T04:13:38.918Z,1001.19
2019-04-25T04:14:38.897Z,1001.17
2019-04-25T04:15:38.876Z,1001.16
2019-04-25T04:16:38.863Z,1001.20
2019-04-25T04:17:38.838Z,1001.19
2019-04-25T04:18:38.816Z,1001.20
2019-04-25T04:19:38.799Z,1001.18
2019-04-25T04:20:38.783Z,1001.17
2019-04-25T04:21:38.756Z,1001.19
2019-04-25T04:22:38.735Z,1001.21
2019-04-25T04:23:38.716Z,1001.19
2019-04-25T04:24:38.696Z,1001.24
2019-04-25T04:25:38.677Z,1001.22
2019-04-25T04:26:38.655Z,1001.22
2019-04-25T04:27:38.637Z,1001.25
2019-04-25T04:28:38.618Z,1001.24
2019-04-25T04:29:38.595Z,1001.26
2019-04-25T04:30:38.576Z,1001.30
2019-04-25T04:31:38.556Z,1001.27
2019-04-25T04:32:38.541Z,1001.32
2019-04-25T04:33:38.516Z,1001.32
2019-04-25T04:34:38.496Z,1001.28
2019-04-25T04:35:38.478Z,1001.32
2019-04-25T04:36:38.457Z,1001.30
2019-04-25T04:37:38.443Z,1001.31
2019-04-25T04:38:38.434Z,1001.32
2019-04-25T04:39:38.396Z,1001.29
2019-04-25T04:40:38.376Z,1001.33
2019-04-25T04:41:38.363Z,1001.32
2019-04-25T04:42:38.337Z,1001.31
2019-04-25T04:43:38.317Z,1001.32
2019-04-25T04:44:38.297Z,1001.24
2019-04-25T04:45:38.275Z,1001.27
2019-04-25T04:46:38.259Z,1001.25
2019-04-25T04:47:38.237Z,1001.28
2019-04-25T04:48:38.218Z,1001.28
2019-04-25T04:49:38.200Z,1001.27
2019-04-25T04:50:38.177Z,1001.26
2019-04-25T04:51:38.158Z,1001.27
2019-04-25T04:52:38.139Z,1001.28
2019-04-25T04:53:38.116Z,1001.31
2019-04-25T04:54:38.096Z,1001.27
2019-04-25T04:55:38.076Z,1001.25
2019-04-25T04:56:38.067Z,1001.28
2019-04-25T04:57:38.035Z,1001.22
2019-04-25T04:58:38.023Z,1001.24
2019-04-25T04:59:37.998Z,1001.23
2019-04-25T05:00:37.977Z,1001.23
2019-04-25T05:01:37.958Z,1001.27
2019-04-25T05:02:37.941Z,1001.23
2019-04-25T05:03:37.917Z,1001.28
2019-04-25T05:04:37.899Z,1001.27
2019-04-25T05:05:37.877Z,1001.27
2019-04-25T05:06:37.857Z,1001.34
2019-04-25T05:07:37.843Z,1001.33
2019-04-25T05:08:37.818Z,1001.38
2019-04-25T05:09:37.795Z,1001.37
2019-04-25T05:10:37.776Z,1001.39
2019-04-25T05:11:37.767Z,1001.42
2019-04-25T05:12:37.740Z,1001.42
2019-04-25T05:13:37.716Z,1001.40
2019-04-25T05:14:37.695Z,1001.37
2019-04-25T05:15:37.680Z,1001.37
2019-04-25T05:16:37.658Z,1001.40
2019-04-25T05:17:37.638Z,1001.38
2019-04-25T05:18:39.982Z,1001.38
2019-04-25T05:19:37.596Z,1001.38
2019-04-25T05:20:37.586Z,1001.39
2019-04-25T05:21:37.565Z,1001.37
2019-04-25T05:22:37.537Z,1001.37
2019-04-25T05:23:37.521Z,1001.34
2019-04-25T05:24:37.498Z,1001.34
2019-04-25T05:25:37.480Z,1001.33
2019-04-25T05:26:37.456Z,1001.30
2019-04-25T05:27:50.800Z,1001.29
2019-04-25T05:28:37.418Z,1001.31
2019-04-25T05:29:37.396Z,1001.28
2019-04-25T05:30:37.379Z,1001.30
2019-04-25T05:31:37.362Z,1001.27
2019-04-25T05:32:37.358Z,1001.27
2019-04-25T05:33:37.317Z,1001.28
2019-04-25T05:34:37.304Z,1001.26
2019-04-25T05:35:37.279Z,1001.27
2019-04-25T05:36:37.256Z,1001.33
2019-04-25T05:37:37.251Z,1001.37
2019-04-25T05:38:37.217Z,1001.36
2019-04-25T05:39:37.199Z,1001.44
2019-04-25T05:40:37.177Z,1001.49
2019-04-25T05:41:37.157Z,1001.51
2019-04-25T05:42:37.139Z,1001.43
2019-04-25T05:43:37.117Z,1001.52
2019-04-25T05:44:37.098Z,1001.46
2019-04-25T05:45:37.081Z,1001.48
2019-04-25T05:46:37.058Z,1001.46
2019-04-25T05:47:37.037Z,1001.45
2019-04-25T05:48:37.018Z,1001.47
2019-04-25T05:49:37.003Z,1001.53
2019-04-25T05:50:36.981Z,1001.53
2019-04-25T05:51:36.963Z,1001.57
2019-04-25T05:52:36.946Z,1001.54
2019-04-25T05:53:36.919Z,1001.59
2019-04-25T05:54:36.921Z,1001.61
2019-04-25T05:55:36.880Z,1001.62
2019-04-25T05:56:36.867Z,1001.68
2019-04-25T05:57:45.517Z,1001.69
2019-04-25T05:58:36.823Z,1001.74
2019-04-25T05:59:36.799Z,1001.78
2019-04-25T06:00:36.791Z,1001.78
2019-04-25T06:01:36.760Z,1001.76
2019-04-25T06:02:36.747Z,1001.76
2019-04-25T06:03:36.745Z,1001.82
2019-04-25T06:04:36.707Z,1001.75
2019-04-25T06:05:36.676Z,1001.76
2019-04-25T06:06:36.956Z,1001.80
2019-04-25T06:07:36.640Z,1001.81
2019-04-25T06:08:36.621Z,1001.85
2019-04-25T06:09:36.610Z,1001.92
2019-04-25T06:10:36.582Z,1001.91
2019-04-25T06:11:36.562Z,1001.91
2019-04-25T06:12:36.576Z,1001.92
2019-04-25T06:13:36.520Z,1001.91
2019-04-25T06:14:36.500Z,1001.96
2019-04-25T06:15:36.481Z,1001.98
2019-04-25T06:16:36.470Z,1001.99
2019-04-25T06:17:36.452Z,1002.01
2019-04-25T06:18:36.421Z,1001.92
2019-04-25T06:19:36.401Z,1001.98
2019-04-25T06:20:36.389Z,1001.99
2019-04-25T06:21:36.362Z,1001.98
2019-04-25T06:22:36.345Z,1002.02
2019-04-25T06:23:36.321Z,1002.02
2019-04-25T06:24:36.301Z,1002.02
2019-04-25T06:25:39.773Z,1001.95
2019-04-25T06:26:39.734Z,1001.91
2019-04-25T06:27:36.244Z,1001.89
2019-04-25T06:28:36.223Z,1001.90
2019-04-25T06:29:36.203Z,1001.78
2019-04-25T06:30:36.183Z,1001.74
2019-04-25T06:31:36.165Z,1001.78
2019-04-25T06:32:36.145Z,1001.72
2019-04-25T06:33:36.171Z,1001.77
2019-04-25T06:34:36.527Z,1001.78
2019-04-25T06:35:36.089Z,1001.82
2019-04-25T06:36:36.065Z,1001.81
2019-04-25T06:37:36.045Z,1001.90
2019-04-25T06:38:36.026Z,1001.92
2019-04-25T06:39:36.006Z,1001.97
2019-04-25T06:40:35.988Z,1001.98
2019-04-25T06:41:35.967Z,1002.02
2019-04-25T06:42:35.948Z,1002.00
2019-04-25T06:43:35.930Z,1002.04
2019-04-25T06:44:35.908Z,1002.07
2019-04-25T06:45:35.887Z,1002.03
2019-04-25T06:46:35.873Z,1002.02
2019-04-25T06:47:35.848Z,1002.01
2019-04-25T06:48:35.829Z,1001.98
2019-04-25T06:49:37.317Z,1002.00
2019-04-25T06:50:35.797Z,1002.02
2019-04-25T06:51:35.778Z,1001.95
2019-04-25T06:52:35.754Z,1001.99
2019-04-25T06:53:35.734Z,1002.01
2019-04-25T06:54:35.718Z,1001.98
2019-04-25T06:55:35.695Z,1002.01
2019-04-25T06:56:35.674Z,1001.94
2019-04-25T06:57:35.656Z,1001.98
2019-04-25T06:58:35.635Z,1001.94
2019-04-25T06:59:38.657Z,1002.06
2019-04-25T07:00:41.181Z,1002.06
2019-04-25T07:01:35.586Z,1002.10
2019-04-25T07:02:35.565Z,1002.16
2019-04-25T07:03:35.819Z,1002.15
2019-04-25T07:04:35.519Z,1002.11
2019-04-25T07:05:40.245Z,1002.15
2019-04-25T07:06:35.488Z,1002.12
2019-04-25T07:07:35.461Z,1002.11
2019-04-25T07:08:35.611Z,1002.09
2019-04-25T07:09:36.089Z,1002.08
2019-04-25T07:10:35.405Z,1002.11
2019-04-25T07:11:35.841Z,1002.07
2019-04-25T07:12:36.027Z,1002.07
2019-04-25T07:13:38.566Z,1002.11
2019-04-25T07:14:36.860Z,1002.11
2019-04-25T07:15:35.383Z,1002.11
2019-04-25T07:16:35.294Z,1002.16
2019-04-25T07:17:35.981Z,1002.13
2019-04-25T07:18:37.221Z,1002.16
2019-04-25T07:19:35.574Z,1002.11
2019-04-25T07:20:35.522Z,1002.11
2019-04-25T07:21:35.614Z,1002.12
2019-04-25T07:22:36.181Z,1002.11
2019-04-25T07:23:35.832Z,1002.10
2019-04-25T07:24:35.378Z,1002.12
2019-04-25T07:25:35.836Z,1002.21
2019-04-25T07:26:39.458Z,1002.22
2019-04-25T07:27:35.626Z,1002.19
2019-04-25T07:28:36.091Z,1002.21
2019-04-25T07:29:35.702Z,1002.18
2019-04-25T07:30:48.357Z,1002.15
2019-04-25T07:31:35.690Z,1002.16
2019-04-25T07:32:35.772Z,1002.12
2019-04-25T07:33:35.871Z,1002.10
2019-04-25T07:34:35.138Z,1002.08
2019-04-25T07:35:35.717Z,1002.00
2019-04-25T07:36:36.168Z,1001.99
2019-04-25T07:37:37.166Z,1001.91
2019-04-25T07:38:35.047Z,1001.90
2019-04-25T07:39:35.570Z,1001.95
2019-04-25T07:40:35.018Z,1001.97
2019-04-25T07:41:37.140Z,1001.98
2019-04-25T07:42:35.447Z,1002.04
2019-04-25T07:43:35.383Z,1002.10
2019-04-25T07:44:47.855Z,1002.06
2019-04-25T07:45:36.162Z,1002.12
2019-04-25T07:46:39.277Z,1002.13
2019-04-25T07:47:35.494Z,1002.23
2019-04-25T07:48:37.151Z,1002.31
2019-04-25T07:49:34.852Z,1002.27
2019-04-25T07:50:35.411Z,1002.33
2019-04-25T07:51:35.511Z,1002.31
2019-04-25T07:52:35.688Z,1002.31
2019-04-25T07:53:35.904Z,1002.31
2019-04-25T07:54:35.488Z,1002.40
2019-04-25T07:55:36.348Z,1002.42
2019-04-25T07:56:35.552Z,1002.46
2019-04-25T07:57:35.610Z,1002.48
2019-04-25T07:58:45.422Z,1002.55
2019-04-25T07:59:35.358Z,1002.56
2019-04-25T08:00:35.498Z,1002.60
2019-04-25T08:01:37.278Z,1002.53
2019-04-25T08:02:35.056Z,1002.54
2019-04-25T08:03:35.282Z,1002.62
2019-04-25T08:04:35.837Z,1002.54
2019-04-25T08:05:35.679Z,1002.57
2019-04-25T08:06:34.560Z,1002.61
2019-04-25T08:07:35.276Z,1002.54
2019-04-25T08:08:34.990Z,1002.56
2019-04-25T08:09:35.738Z,1002.58
2019-04-25T08:10:34.678Z,1002.46
2019-04-25T08:11:35.095Z,1002.49
2019-04-25T08:12:35.452Z,1002.56
2019-04-25T08:13:35.080Z,1002.52
2019-04-25T08:14:35.101Z,1002.51
2019-04-25T08:15:34.979Z,1002.46
2019-04-25T08:16:34.790Z,1002.33
2019-04-25T08:17:34.657Z,1002.50
2019-04-25T08:18:35.122Z,1002.49
2019-04-25T08:19:34.691Z,1002.51
2019-04-25T08:20:34.801Z,1002.55
2019-04-25T08:21:35.137Z,1002.53
2019-04-25T08:22:42.921Z,1002.59
2019-04-25T08:23:36.719Z,1002.59
2019-04-25T08:24:34.901Z,1002.56
2019-04-25T08:25:37.697Z,1002.50
2019-04-25T08:26:36.080Z,1002.48
2019-04-25T08:27:34.752Z,1002.43
2019-04-25T08:28:34.552Z,1002.44
2019-04-25T08:29:36.331Z,1002.41
2019-04-25T08:30:35.341Z,1002.38
2019-04-25T08:31:34.955Z,1002.39
2019-04-25T08:32:35.508Z,1002.51
2019-04-25T08:33:34.547Z,1002.51
2019-04-25T08:34:34.829Z,1002.53
2019-04-25T08:35:34.256Z,1002.59
2019-04-25T08:36:38.020Z,1002.62
2019-04-25T08:37:34.443Z,1002.69
2019-04-25T08:38:34.795Z,1002.72
2019-04-25T08:39:36.938Z,1002.76
2019-04-25T08:40:35.796Z,1002.77
2019-04-25T08:41:34.845Z,1002.72
2019-04-25T08:42:35.406Z,1002.61
2019-04-25T08:43:34.828Z,1002.70
2019-04-25T08:44:34.818Z,1002.77
2019-04-25T08:45:35.705Z,1002.71
2019-04-25T08:46:35.815Z,1002.71
2019-04-25T08:47:35.095Z,1002.73
2019-04-25T08:48:34.504Z,1002.65
2019-04-25T08:49:34.929Z,1002.57
2019-04-25T08:50:37.194Z,1002.66
2019-04-25T08:51:34.873Z,1002.61
2019-04-25T08:52:35.140Z,1002.72
2019-04-25T08:53:35.144Z,1002.63
2019-04-25T08:54:35.416Z,1002.52
2019-04-25T08:55:34.919Z,1002.55
2019-04-25T08:56:35.101Z,1002.60
2019-04-25T08:57:34.122Z,1002.57
2019-04-25T08:58:35.135Z,1002.58
2019-04-25T08:59:40.090Z,1002.62
2019-04-25T09:00:35.532Z,1002.69
2019-04-25T09:01:36.503Z,1002.57
2019-04-25T09:02:36.109Z,1002.69
2019-04-25T09:03:35.277Z,1002.70
2019-04-25T09:04:35.685Z,1002.81
2019-04-25T09:05:35.173Z,1002.64
2019-04-25T09:06:35.058Z,1002.76
2019-04-25T09:07:35.357Z,1002.68
2019-04-25T09:08:36.023Z,1002.73
2019-04-25T09:09:35.384Z,1002.67
2019-04-25T09:10:36.831Z,1002.64
2019-04-25T09:11:34.814Z,1002.70
2019-04-25T09:12:35.537Z,1002.61
2019-04-25T09:13:35.848Z,1002.69
2019-04-25T09:14:34.906Z,1002.68
2019-04-25T09:15:35.664Z,1002.70
2019-04-25T09:16:34.517Z,1002.73
2019-04-25T09:17:35.484Z,1002.75
2019-04-25T09:18:35.726Z,1002.70
2019-04-25T09:19:35.883Z,1002.71
2019-04-25T09:20:38.036Z,1002.76
2019-04-25T09:21:34.174Z,1002.77
2019-04-25T09:22:35.286Z,1002.66
2019-04-25T09:23:34.376Z,1002.72
2019-04-25T09:24:33.637Z,1002.72
2019-04-25T09:25:34.505Z,1002.75
2019-04-25T09:26:34.916Z,1002.78
2019-04-25T09:27:34.333Z,1002.81
2019-04-25T09:28:34.726Z,1002.82
2019-04-25T09:29:34.234Z,1002.81
2019-04-25T09:30:34.969Z,1002.88
2019-04-25T09:31:34.576Z,1002.80
2019-04-25T09:32:33.780Z,1002.83
2019-04-25T09:33:35.171Z,1002.82
2019-04-25T09:34:33.579Z,1002.85
2019-04-25T09:35:33.492Z,1002.86
2019-04-25T09:36:33.606Z,1002.87
2019-04-25T09:37:33.579Z,1002.84
2019-04-25T09:38:34.761Z,1002.78
2019-04-25T09:39:33.824Z,1002.89
2019-04-25T09:40:34.191Z,1002.87
2019-04-25T09:41:33.592Z,1002.92
2019-04-25T09:42:33.824Z,1002.99
2019-04-25T09:43:33.507Z,1002.90
2019-04-25T09:44:32.572Z,1002.90
2019-04-25T09:45:33.501Z,1002.90
2019-04-25T09:46:34.080Z,1002.92
2019-04-25T09:47:33.526Z,1002.95
2019-04-25T09:48:34.348Z,1002.94
2019-04-25T09:49:33.899Z,1002.93
2019-04-25T09:50:33.997Z,1002.89
2019-04-25T09:51:33.605Z,1002.92
2019-04-25T09:52:33.995Z,1002.93
2019-04-25T09:53:34.001Z,1002.88
2019-04-25T09:54:33.394Z,1002.93
2019-04-25T09:55:33.935Z,1002.87
2019-04-25T09:56:33.821Z,1002.88
2019-04-25T09:57:33.482Z,1002.84
2019-04-25T09:58:33.802Z,1002.85
2019-04-25T09:59:33.211Z,1002.83
2019-04-25T10:00:33.435Z,1002.85
2019-04-25T10:01:33.763Z,1002.86
2019-04-25T10:02:32.250Z,1002.87
2019-04-25T10:03:33.359Z,1002.84
2019-04-25T10:04:34.501Z,1002.84
2019-04-25T10:05:33.825Z,1002.82
2019-04-25T10:06:33.303Z,1002.77
2019-04-25T10:07:32.161Z,1002.83
2019-04-25T10:08:32.150Z,1002.90
2019-04-25T10:09:33.657Z,1002.86
2019-04-25T10:10:32.100Z,1002.87
2019-04-25T10:11:33.506Z,1002.88
2019-04-25T10:12:32.075Z,1002.93
2019-04-25T10:13:33.601Z,1002.93
2019-04-25T10:14:32.034Z,1002.92
2019-04-25T10:15:32.010Z,1002.83
2019-04-25T10:16:33.503Z,1002.93
2019-04-25T10:17:33.384Z,1002.82
2019-04-25T10:18:33.483Z,1002.87
2019-04-25T10:19:31.942Z,1002.87
2019-04-25T10:20:33.404Z,1002.88
2019-04-25T10:21:31.907Z,1002.83
2019-04-25T10:22:31.883Z,1002.75
2019-04-25T10:23:31.868Z,1002.92
2019-04-25T10:24:31.847Z,1002.85
2019-04-25T10:25:33.328Z,1002.87
2019-04-25T10:26:34.754Z,1002.89
2019-04-25T10:27:31.794Z,1002.90
2019-04-25T10:28:33.439Z,1002.88
2019-04-25T10:29:41.280Z,1002.83
2019-04-25T10:30:31.738Z,1002.94
2019-04-25T10:31:31.719Z,1003.03
2019-04-25T10:32:33.451Z,1002.97
2019-04-25T10:33:31.701Z,1003.07
2019-04-25T10:34:33.346Z,1003.07
2019-04-25T10:35:34.239Z,1003.04
2019-04-25T10:36:31.629Z,1003.00
2019-04-25T10:37:31.612Z,1003.03
2019-04-25T10:38:33.609Z,1003.05
2019-04-25T10:39:31.579Z,1002.99
2019-04-25T10:40:31.560Z,1003.02
2019-04-25T10:41:33.653Z,1003.03
2019-04-25T10:42:31.520Z,1002.98
2019-04-25T10:43:31.500Z,1002.95
2019-04-25T10:44:31.488Z,1003.01
2019-04-25T10:45:31.471Z,1002.98
2019-04-25T10:46:31.452Z,1003.02
2019-04-25T10:47:31.432Z,1002.99
2019-04-25T10:48:31.415Z,1002.99
2019-04-25T10:49:31.397Z,1002.94
2019-04-25T10:50:31.374Z,1002.92
2019-04-25T10:51:31.382Z,1002.93
2019-04-25T10:52:31.338Z,1002.88
2019-04-25T10:53:31.321Z,1002.88
2019-04-25T10:54:31.306Z,1002.89
2019-04-25T10:55:31.302Z,1002.92
2019-04-25T10:56:31.267Z,1002.88
2019-04-25T10:57:31.250Z,1002.86
2019-04-25T10:58:31.232Z,1002.81
2019-04-25T10:59:31.213Z,1002.92
2019-04-25T11:00:31.197Z,1002.85
2019-04-25T11:01:31.180Z,1002.81
2019-04-25T11:02:31.160Z,1002.82
2019-04-25T11:03:31.151Z,1002.75
2019-04-25T11:04:31.136Z,1002.70
2019-04-25T11:05:31.117Z,1002.65
2019-04-25T11:06:31.090Z,1002.62
2019-04-25T11:07:31.084Z,1002.49
2019-04-25T11:08:31.056Z,1002.53
2019-04-25T11:09:31.037Z,1002.50
2019-04-25T11:10:31.029Z,1002.57
2019-04-25T11:11:31.005Z,1002.56
2019-04-25T11:12:30.994Z,1002.53
2019-04-25T11:13:30.974Z,1002.48
2019-04-25T11:14:30.952Z,1002.50
2019-04-25T11:15:30.935Z,1002.36
2019-04-25T11:16:30.920Z,1002.45
2019-04-25T11:17:30.903Z,1002.44
2019-04-25T11:18:30.888Z,1002.54
2019-04-25T11:19:30.869Z,1002.50
2019-04-25T11:20:30.848Z,1002.41
2019-04-25T11:21:30.832Z,1002.48
2019-04-25T11:22:30.817Z,1002.58
2019-04-25T11:23:30.805Z,1002.45
2019-04-25T11:24:30.783Z,1002.38
2019-04-25T11:25:30.777Z,1002.43
2019-04-25T11:26:30.749Z,1002.29
2019-04-25T11:27:30.745Z,1002.28
2019-04-25T11:28:30.725Z,1002.34
2019-04-25T11:29:30.701Z,1002.41
2019-04-25T11:30:30.688Z,1002.28
2019-04-25T11:31:30.681Z,1002.31
2019-04-25T11:32:30.647Z,1002.30
2019-04-25T11:33:30.633Z,1002.27
2019-04-25T11:34:30.615Z,1002.31
2019-04-25T11:35:30.605Z,1002.29
2019-04-25T11:36:30.582Z,1002.26
2019-04-25T11:37:30.562Z,1002.22
2019-04-25T11:38:30.915Z,1002.27
2019-04-25T11:39:30.543Z,1002.12
2019-04-25T11:40:30.518Z,1002.16
2019-04-25T11:41:30.497Z,1002.29
2019-04-25T11:42:30.481Z,1002.23
2019-04-25T11:43:30.470Z,1002.20
2019-04-25T11:44:30.457Z,1002.18
2019-04-25T11:45:30.439Z,1002.12
2019-04-25T11:46:30.415Z,1002.16
2019-04-25T11:47:30.406Z,1002.16
2019-04-25T11:48:30.383Z,1002.22
2019-04-25T11:49:30.388Z,1002.12
2019-04-25T11:50:30.355Z,1002.13
2019-04-25T11:51:30.339Z,1002.13
2019-04-25T11:52:30.479Z,1002.03
2019-04-25T11:53:30.309Z,1002.17
2019-04-25T11:54:30.289Z,1002.14
2019-04-25T11:55:30.278Z,1002.16
2019-04-25T11:56:30.251Z,1002.15
2019-04-25T11:57:30.245Z,1002.14
2019-04-25T11:58:30.221Z,1002.21
2019-04-25T11:59:30.204Z,1002.27
2019-04-25T12:00:30.190Z,1002.29
2019-04-25T12:01:30.180Z,1002.23
2019-04-25T12:02:30.162Z,1002.16
2019-04-25T12:03:30.138Z,1002.15
2019-04-25T12:04:30.128Z,1002.20
2019-04-25T12:05:30.104Z,1002.11